aviador You're here:

KMTO Decoded Metar

MATTOON/CHARLEST in IL, USA
Report Time2017-11-19 20:53:00
UTC Time2017-11-19 21:43:57
Flight Rules vfr VFR
Wind300° at 13 kt
W.Decomp.*RWY 29: 12.7 kt HW 2.9 kt RCW
RWY 36: 7.1 kt HW 10.9 kt LCW
RWY 24: 5.9 kt HW 11.6 kt RCW
W.Rank300° ranks 9
Current wind is above 300° avg. (9.9)
Visibility9999 m
Phenomena:N/A
Clouds:N/A
Expected CloudBase > 3,200 ft AGL from Temp-Dew spread
CeilingNone
Temp02°C (ISA -12)
Dew Point-6°C (56% RH)
AAT-5.4°C
QNH1020 hPa
Density Alt-889 ft
Elevation702 ft
Report Wrong Elevation
Raw Report
KMTO 192053Z AUTO 30013KT 10SM CLR 02/M06 A3013 RMK AO2 SLP210
T00221056 55007=

Extra information for KMTO:More info

Metar Taf Metar & Taf Last 4 Metars F.Rules Stats Wind Profile Meteogram Temp Stats Airport Information Weather charts Add Link Nearby VenuesMetar ALERT Operation Metar Decoded Social comments

AIRNAV info for KMTO